Time;durP1;ratioP1;P1;durP2;ratioP2;P2;SDS_P1;SDS_P2;PMS_P1;PMS_P2;Temp;Humidity;BMP_temperature;BMP_pressure;BME280_temperature;BME280_humidity;BME280_pressure;Samples;Min_cycle;Max_cycle;Signal;HPM_P1;HPM_P2
2021/08/14 00:02:14;;;;;;;23.42;11.60;;;;;;;17.14;74.90;101918.03;5092113;28;20127;-69
2021/08/14 00:04:41;;;;;;;24.65;11.48;;;;;;;17.06;74.96;101919.69;5090441;28;20044;-69
2021/08/14 00:07:08;;;;;;;24.88;11.35;;;;;;;17.05;75.25;101919.84;5092754;28;20481;-69
2021/08/14 00:09:35;;;;;;;33.80;11.98;;;;;;;17.03;75.01;101919.19;5090162;28;20416;-69
2021/08/14 00:12:04;;;;;;;26.23;12.43;;;;;;;17.00;74.45;101923.03;5110938;28;20122;-69
2021/08/14 00:14:31;;;;;;;24.30;11.27;;;;;;;17.00;74.48;101925.72;5112869;28;20044;-69
2021/08/14 00:16:58;;;;;;;25.20;11.95;;;;;;;16.98;74.34;101918.84;5112584;28;20092;-69
2021/08/14 00:19:24;;;;;;;29.35;11.35;;;;;;;16.99;73.98;101917.84;5112260;28;20036;-69
2021/08/14 00:21:51;;;;;;;32.13;13.65;;;;;;;16.91;74.08;101921.34;5112494;28;20035;-69
2021/08/14 00:24:18;;;;;;;27.50;13.18;;;;;;;16.96;73.61;101918.19;5114946;28;20035;-68
2021/08/14 00:26:45;;;;;;;25.45;12.23;;;;;;;16.96;73.83;101919.00;5127072;27;20056;-68
2021/08/14 00:29:11;;;;;;;22.33;11.52;;;;;;;16.95;74.49;101924.53;5110312;28;20491;-69
2021/08/14 00:31:39;;;;;;;24.20;11.55;;;;;;;16.92;74.14;101914.16;5111107;28;20407;-69
2021/08/14 00:34:06;;;;;;;26.33;12.18;;;;;;;16.93;73.89;101918.50;5092376;28;20047;-69
2021/08/14 00:36:32;;;;;;;25.45;11.18;;;;;;;16.91;74.41;101931.25;5111140;28;20035;-69
2021/08/14 00:38:59;;;;;;;25.83;12.05;;;;;;;16.84;74.98;101915.81;5111566;28;20043;-67
2021/08/14 00:41:30;;;;;;;30.83;11.80;;;;;;;16.82;75.14;101919.66;5111045;28;20088;-69
2021/08/14 00:44:05;;;;;;;24.73;10.77;;;;;;;16.73;75.93;101924.16;5110703;28;20039;-69
2021/08/14 00:46:33;;;;;;;23.45;11.20;;;;;;;16.79;75.93;101911.94;5112389;28;20056;-69
2021/08/14 00:49:00;;;;;;;28.25;11.77;;;;;;;16.77;76.26;101913.94;5115349;28;20426;-69
2021/08/14 00:51:27;;;;;;;26.95;11.40;;;;;;;16.77;76.93;101912.13;5115848;28;20047;-69
2021/08/14 00:53:54;;;;;;;26.58;11.63;;;;;;;16.75;77.22;101913.28;5115411;28;20040;-69
2021/08/14 00:56:24;;;;;;;22.90;11.38;;;;;;;16.72;77.41;101916.28;5114543;28;20100;-69
2021/08/14 00:58:52;;;;;;;27.63;11.35;;;;;;;16.74;77.46;101907.09;5114128;28;20044;-69
2021/08/14 01:01:21;;;;;;;21.38;11.18;;;;;;;16.69;77.54;101899.53;5115459;28;20049;-69
2021/08/14 01:03:48;;;;;;;22.63;11.45;;;;;;;16.68;76.74;101897.88;5096785;28;20035;-68
2021/08/14 01:06:16;;;;;;;23.85;11.75;;;;;;;16.66;76.99;101897.22;5115701;28;20052;-69
2021/08/14 01:08:43;;;;;;;24.02;10.40;;;;;;;16.63;77.80;101889.50;5115361;28;20044;-69
2021/08/14 01:11:11;;;;;;;24.67;11.80;;;;;;;16.64;78.23;101888.47;5097397;28;20040;-69
2021/08/14 01:13:39;;;;;;;23.25;10.95;;;;;;;16.62;77.25;101882.44;5113420;28;20036;-68
2021/08/14 01:16:07;;;;;;;26.45;11.20;;;;;;;16.64;76.70;101885.78;5115314;28;20123;-69
2021/08/14 01:18:44;;;;;;;23.60;10.88;;;;;;;16.59;77.19;101901.56;5098281;28;20035;-69
2021/08/14 01:21:18;;;;;;;25.40;10.82;;;;;;;16.59;77.44;101895.34;5114090;28;20478;-69
2021/08/14 01:23:47;;;;;;;25.40;11.10;;;;;;;16.53;77.38;101894.16;5114940;28;20492;-69
2021/08/14 01:26:14;;;;;;;24.45;11.82;;;;;;;16.54;77.07;101898.53;5115058;28;20039;-69
2021/08/14 01:28:42;;;;;;;24.25;11.18;;;;;;;16.53;77.27;101890.66;5115209;28;20043;-69
2021/08/14 01:31:10;;;;;;;24.02;10.85;;;;;;;16.53;77.74;101904.03;5113926;28;20046;-69
2021/08/14 01:33:40;;;;;;;24.95;10.93;;;;;;;16.50;78.06;101891.84;5113774;28;20122;-69
2021/08/14 01:36:08;;;;;;;27.40;11.13;;;;;;;16.49;78.30;101900.84;5113943;28;20044;-69
2021/08/14 01:38:59;;;;;;;22.42;10.75;;;;;;;16.48;78.21;101891.13;5113420;28;20407;-69
2021/08/14 01:41:27;;;;;;;23.30;11.20;;;;;;;16.38;78.00;101888.63;5113108;28;20464;-69
2021/08/14 01:44:05;;;;;;;25.45;10.93;;;;;;;16.35;78.58;101893.47;5114742;28;20039;-69
2021/08/14 01:46:34;;;;;;;26.67;11.38;;;;;;;16.35;78.97;101888.94;5114912;28;20044;-69
2021/08/14 01:49:01;;;;;;;25.17;12.20;;;;;;;16.31;79.17;101880.41;5112881;28;20549;-69
2021/08/14 01:51:31;;;;;;;25.23;12.00;;;;;;;16.29;79.20;101885.06;5114692;28;20399;-69
2021/08/14 01:53:59;;;;;;;23.88;10.63;;;;;;;16.31;79.34;101879.56;5096045;28;20392;-69
2021/08/14 01:56:26;;;;;;;26.10;11.63;;;;;;;16.29;79.34;101869.00;5114465;28;20048;-69
2021/08/14 01:58:54;;;;;;;22.65;11.77;;;;;;;16.26;79.11;101872.03;5113320;28;20066;-69
2021/08/14 02:01:21;;;;;;;24.02;11.45;;;;;;;16.24;79.32;101862.47;5113408;28;20069;-69
2021/08/14 02:03:48;;;;;;;26.23;12.05;;;;;;;16.26;79.64;101872.03;5113050;28;20035;-69
2021/08/14 02:06:16;;;;;;;20.95;11.65;;;;;;;16.28;79.35;101864.69;5113117;28;20044;-69
2021/08/14 02:08:43;;;;;;;28.95;11.18;;;;;;;16.34;78.39;101873.06;5114039;27;20042;-69
2021/08/14 02:11:13;;;;;;;27.77;11.50;;;;;;;16.26;78.37;101877.41;5114215;28;20480;-68
2021/08/14 02:13:42;;;;;;;23.70;11.05;;;;;;;16.23;78.57;101869.69;5114245;28;20484;-69
2021/08/14 02:16:10;;;;;;;25.20;11.25;;;;;;;16.23;78.44;101868.84;5114249;28;20123;-69
2021/08/14 02:18:37;;;;;;;26.58;12.18;;;;;;;16.21;78.46;101873.50;5110822;28;20550;-69
2021/08/14 02:21:05;;;;;;;22.58;10.82;;;;;;;16.18;78.72;101873.84;5113927;28;20050;-69
2021/08/14 02:23:32;;;;;;;25.42;11.80;;;;;;;16.18;78.70;101866.66;5113965;28;20047;-69
2021/08/14 02:25:59;;;;;;;24.45;11.88;;;;;;;16.17;79.19;101867.69;5124154;27;20039;-68
2021/08/14 02:28:27;;;;;;;24.65;11.35;;;;;;;16.14;79.62;101872.50;5134667;27;20602;-69
2021/08/14 02:30:55;;;;;;;28.55;11.27;;;;;;;16.10;79.86;101863.97;5133481;27;20039;-71
2021/08/14 02:33:22;;;;;;;22.27;11.45;;;;;;;16.14;79.61;101868.00;5134140;27;20039;-69
2021/08/14 02:35:50;;;;;;;26.33;12.20;;;;;;;16.05;79.98;101864.44;5134422;27;20042;-68
2021/08/14 02:38:16;;;;;;;26.60;11.82;;;;;;;16.04;80.27;101867.28;5118630;27;20047;-69
2021/08/14 02:40:46;;;;;;;21.83;12.00;;;;;;;16.03;80.08;101868.31;5095038;28;20067;-69
2021/08/14 02:43:14;;;;;;;22.85;11.48;;;;;;;16.01;80.07;101870.28;5111898;28;20058;-69
2021/08/14 02:45:44;;;;;;;24.42;11.93;;;;;;;16.05;79.90;101871.66;5112129;28;20404;-68
2021/08/14 02:48:11;;;;;;;25.50;12.32;;;;;;;16.03;80.04;101868.31;5113430;28;20049;-69
2021/08/14 02:50:43;;;;;;;29.05;11.93;;;;;;;16.06;80.04;101871.50;5112483;28;20046;-69
2021/08/14 02:53:11;;;;;;;25.63;13.40;;;;;;;16.15;79.92;101868.81;5112132;28;20040;-69
2021/08/14 02:55:39;;;;;;;29.23;11.95;;;;;;;16.18;80.34;101872.00;5113170;28;20121;-69
2021/08/14 02:58:07;;;;;;;25.98;11.50;;;;;;;16.22;80.26;101867.16;5112089;28;20099;-69
2021/08/14 03:00:34;;;;;;;22.75;11.43;;;;;;;16.20;80.16;101861.97;5113005;27;20395;-69
2021/08/14 03:03:00;;;;;;;22.70;11.93;;;;;;;16.25;80.13;101872.19;5112167;28;20039;-69
2021/08/14 03:05:27;;;;;;;29.05;11.77;;;;;;;16.26;80.24;101869.38;5113248;28;20557;-69
2021/08/14 03:07:54;;;;;;;28.73;11.35;;;;;;;16.31;79.81;101863.50;5111831;28;20154;-69
2021/08/14 03:10:21;;;;;;;27.20;11.95;;;;;;;16.30;79.83;101867.19;5112359;28;20067;-69
2021/08/14 03:12:48;;;;;;;24.10;12.45;;;;;;;16.24;79.73;101868.66;5111473;28;20044;-69
2021/08/14 03:15:16;;;;;;;22.83;11.48;;;;;;;16.35;78.73;101862.16;5113032;28;20047;-69
2021/08/14 03:17:42;;;;;;;24.50;11.57;;;;;;;16.27;79.30;101856.81;5112947;28;20085;-69
2021/08/14 03:20:10;;;;;;;27.75;13.05;;;;;;;16.17;78.90;101861.47;5111677;28;20488;-69
2021/08/14 03:22:37;;;;;;;26.50;11.40;;;;;;;16.27;78.04;101862.16;5112950;28;20499;-69
2021/08/14 03:25:04;;;;;;;25.98;11.60;;;;;;;16.26;77.96;101863.16;5112696;28;20039;-69
2021/08/14 03:27:31;;;;;;;31.40;12.68;;;;;;;16.24;78.37;101857.13;5112480;28;20081;-69
2021/08/14 03:29:58;;;;;;;25.65;11.75;;;;;;;16.14;78.55;101861.81;5112918;28;20040;-68
2021/08/14 03:32:25;;;;;;;24.05;10.32;;;;;;;16.11;78.86;101855.75;5111552;28;20126;-69
2021/08/14 03:34:51;;;;;;;27.55;11.63;;;;;;;16.10;78.69;101863.97;5094720;28;20055;-69
2021/08/14 03:37:18;;;;;;;27.52;11.07;;;;;;;16.01;79.23;101863.09;5110860;28;20126;-69
2021/08/14 03:39:45;;;;;;;28.33;11.60;;;;;;;15.95;79.45;101857.56;5112221;28;20051;-69
2021/08/14 03:42:11;;;;;;;23.63;11.35;;;;;;;15.99;79.28;101864.25;5112331;28;20130;-69
2021/08/14 03:44:38;;;;;;;24.63;11.48;;;;;;;15.99;79.03;101857.09;5112642;28;20036;-69
2021/08/14 03:47:05;;;;;;;26.33;11.60;;;;;;;15.93;78.87;101857.72;5113033;28;20462;-69
2021/08/14 03:49:32;;;;;;;21.38;11.50;;;;;;;15.92;78.94;101859.56;5100882;28;20040;-69
2021/08/14 03:51:59;;;;;;;34.30;13.35;;;;;;;15.77;79.52;101868.34;5092286;28;20032;-69
2021/08/14 03:54:26;;;;;;;32.30;13.00;;;;;;;15.66;79.79;101872.13;5090835;28;20040;-69
2021/08/14 03:56:54;;;;;;;25.92;12.00;;;;;;;15.60;79.89;101865.56;5092045;28;20496;-69
2021/08/14 03:59:20;;;;;;;24.75;11.50;;;;;;;15.66;80.22;101866.75;5091162;28;20126;-69
2021/08/14 04:01:47;;;;;;;26.08;12.43;;;;;;;15.68;80.08;101868.31;5092321;28;20036;-69
2021/08/14 04:04:14;;;;;;;28.27;12.60;;;;;;;15.66;80.38;101872.97;5090814;28;20043;-68
2021/08/14 04:06:41;;;;;;;29.60;12.45;;;;;;;15.68;79.73;101868.31;5112245;28;20126;-69
2021/08/14 04:09:08;;;;;;;26.02;11.80;;;;;;;15.69;79.93;101866.47;5092130;28;20051;-69
2021/08/14 04:11:34;;;;;;;34.00;11.95;;;;;;;15.70;79.80;101868.16;5112480;28;20051;-69
2021/08/14 04:14:01;;;;;;;23.80;11.85;;;;;;;15.69;79.91;101874.47;5112472;28;20400;-68
2021/08/14 04:16:28;;;;;;;30.58;11.35;;;;;;;15.66;79.78;101864.09;5111325;28;20100;-69
2021/08/14 04:18:55;;;;;;;25.48;12.30;;;;;;;15.67;79.64;101871.13;5110755;28;20475;-69
2021/08/14 04:21:21;;;;;;;25.50;11.80;;;;;;;15.67;79.78;101882.66;5112379;28;20046;-69
2021/08/14 04:23:48;;;;;;;26.55;11.32;;;;;;;15.63;79.45;101883.16;5113813;28;20036;-69
2021/08/14 04:26:15;;;;;;;26.67;12.10;;;;;;;15.64;79.67;101884.81;5119220;27;20039;-68
2021/08/14 04:28:41;;;;;;;28.35;12.32;;;;;;;15.65;79.88;101878.47;5116317;28;20046;-68
2021/08/14 04:31:08;;;;;;;25.52;11.85;;;;;;;15.58;80.32;101874.75;5114663;28;20442;-68
2021/08/14 04:33:35;;;;;;;26.10;11.80;;;;;;;15.58;79.83;101877.44;5116218;28;20062;-68
2021/08/14 04:36:02;;;;;;;34.03;12.63;;;;;;;15.54;80.07;101883.09;5114536;28;20403;-69
2021/08/14 04:38:28;;;;;;;32.13;12.00;;;;;;;15.51;79.99;101877.22;5114275;28;20126;-68
2021/08/14 04:40:55;;;;;;;28.15;12.48;;;;;;;15.63;80.25;101877.81;5097390;28;20055;-69
2021/08/14 04:43:22;;;;;;;30.13;12.57;;;;;;;15.57;80.33;101878.41;5114861;28;20044;-69
2021/08/14 04:45:49;;;;;;;30.60;13.85;;;;;;;15.59;80.32;101876.44;5097839;28;20042;-69
2021/08/14 04:48:15;;;;;;;27.00;12.85;;;;;;;15.58;80.74;101872.91;5115929;28;20046;-69
2021/08/14 04:50:42;;;;;;;28.05;12.90;;;;;;;15.60;80.75;101872.75;5080958;28;20055;-68
2021/08/14 04:53:10;;;;;;;25.92;12.40;;;;;;;15.62;80.73;101868.09;5098447;28;20051;-68
2021/08/14 04:55:36;;;;;;;27.75;12.43;;;;;;;15.53;80.96;101870.75;5114513;28;20040;-69
2021/08/14 04:58:03;;;;;;;24.52;12.88;;;;;;;15.54;81.11;101874.25;5115672;28;20047;-69
2021/08/14 05:00:30;;;;;;;29.27;13.00;;;;;;;15.61;80.42;101877.97;5115847;28;20504;-69
2021/08/14 05:02:57;;;;;;;26.60;12.75;;;;;;;15.62;80.65;101876.94;5114467;28;20127;-68
2021/08/14 05:05:24;;;;;;;38.80;12.95;;;;;;;15.66;80.40;101874.78;5115120;28;20035;-69
2021/08/14 05:07:50;;;;;;;28.92;13.13;;;;;;;15.65;80.68;101878.47;5113880;28;20047;-69
2021/08/14 05:10:17;;;;;;;23.63;12.10;;;;;;;15.68;80.82;101879.00;5115339;28;20040;-69
2021/08/14 05:12:44;;;;;;;27.92;13.13;;;;;;;15.69;80.89;101871.81;5115732;28;20047;-69
2021/08/14 05:15:11;;;;;;;28.00;13.25;;;;;;;15.68;81.00;101875.47;5114165;28;20063;-68
2021/08/14 05:17:38;;;;;;;32.33;14.02;;;;;;;15.67;80.85;101871.13;5115351;28;20043;-68
2021/08/14 05:20:05;;;;;;;30.40;12.98;;;;;;;15.74;80.50;101866.84;5096649;28;20127;-67
2021/08/14 05:22:32;;;;;;;29.33;12.43;;;;;;;15.83;80.26;101873.91;5115196;28;20039;-67
2021/08/14 05:24:59;;;;;;;34.25;13.68;;;;;;;15.85;80.50;101868.41;5115016;28;20176;-68
2021/08/14 05:27:25;;;;;;;31.00;11.98;;;;;;;15.88;80.42;101865.38;5115270;28;20051;-68
2021/08/14 05:29:52;;;;;;;28.55;12.85;;;;;;;15.86;80.37;101857.53;5113866;28;20039;-68
2021/08/14 05:32:19;;;;;;;29.08;12.77;;;;;;;15.88;79.88;101874.25;5097316;28;20050;-68
2021/08/14 05:34:46;;;;;;;39.72;13.40;;;;;;;15.87;80.11;101874.44;5111268;28;20442;-68
2021/08/14 05:37:13;;;;;;;32.97;12.63;;;;;;;15.90;79.98;101868.75;5113775;28;20046;-67
2021/08/14 05:39:39;;;;;;;27.20;11.70;;;;;;;15.95;79.64;101866.41;5114507;28;20131;-68
2021/08/14 05:42:06;;;;;;;26.65;11.82;;;;;;;15.95;78.63;101863.72;5113734;28;20032;-68
2021/08/14 05:44:33;;;;;;;28.88;11.65;;;;;;;15.98;78.99;101873.28;5114615;28;20032;-68
2021/08/14 05:46:59;;;;;;;33.67;10.93;;;;;;;16.01;77.09;101873.81;5114807;28;20048;-68
2021/08/14 05:49:26;;;;;;;26.35;11.60;;;;;;;16.10;76.37;101875.50;5114303;28;20488;-67
2021/08/14 05:51:53;;;;;;;32.00;10.70;;;;;;;16.08;77.56;101863.28;5113561;28;20507;-68
2021/08/14 05:54:20;;;;;;;32.95;9.80;;;;;;;16.28;72.97;101862.00;5114306;28;20039;-68
2021/08/14 05:56:47;;;;;;;29.35;9.40;;;;;;;16.23;73.52;101860.81;5114575;28;20522;-68
2021/08/14 05:59:14;;;;;;;25.80;9.43;;;;;;;16.18;73.47;101863.97;5113384;28;20035;-69
2021/08/14 06:01:40;;;;;;;25.45;9.55;;;;;;;16.29;73.05;101860.16;5112857;28;20043;-67
2021/08/14 06:04:07;;;;;;;26.83;9.45;;;;;;;16.41;72.05;101860.66;5114207;28;20043;-67
2021/08/14 06:06:34;;;;;;;27.42;9.63;;;;;;;16.42;72.82;101860.50;5112661;28;20050;-69
2021/08/14 06:09:01;;;;;;;29.23;9.88;;;;;;;16.40;72.69;101862.50;5114239;28;20424;-69
2021/08/14 06:11:29;;;;;;;26.25;8.93;;;;;;;16.62;71.28;101865.56;5114172;28;20044;-69
2021/08/14 06:13:56;;;;;;;26.25;8.88;;;;;;;16.47;72.91;101860.84;5113987;28;20133;-69
2021/08/14 06:16:22;;;;;;;27.15;8.85;;;;;;;16.75;71.13;101870.41;5095911;28;20043;-69
2021/08/14 06:18:49;;;;;;;21.70;8.77;;;;;;;16.54;72.72;101871.75;5095662;28;20416;-69
2021/08/14 06:21:16;;;;;;;26.02;8.68;;;;;;;16.50;72.94;101879.28;5113012;28;20036;-69
2021/08/14 06:23:43;;;;;;;23.38;8.25;;;;;;;16.58;70.78;101878.44;5113895;28;20097;-69
2021/08/14 06:26:10;;;;;;;33.10;9.25;;;;;;;16.67;70.93;101876.59;5111628;27;20062;-69
2021/08/14 06:28:37;;;;;;;21.85;8.45;;;;;;;16.68;71.00;101876.44;5130891;27;20466;-69
2021/08/14 06:31:03;;;;;;;27.27;8.73;;;;;;;16.74;70.65;101882.16;5134159;27;20050;-69
2021/08/14 06:33:30;;;;;;;26.02;7.88;;;;;;;16.69;71.80;101880.78;5132745;27;20038;-69
2021/08/14 06:35:58;;;;;;;28.88;8.23;;;;;;;16.89;69.74;101878.63;5133161;27;20123;-69
2021/08/14 06:38:25;;;;;;;21.00;7.82;;;;;;;17.03;68.35;101882.50;5095941;28;20060;-69
2021/08/14 06:40:52;;;;;;;23.85;8.02;;;;;;;16.90;68.72;101874.13;5091588;28;20048;-69
2021/08/14 06:43:18;;;;;;;28.70;8.10;;;;;;;16.97;69.29;101867.09;5092946;28;20501;-69
2021/08/14 06:45:45;;;;;;;24.38;8.15;;;;;;;16.88;70.50;101874.31;5092387;28;20059;-69
2021/08/14 06:48:12;;;;;;;25.02;7.78;;;;;;;16.93;70.08;101881.00;5075535;28;20135;-69
2021/08/14 06:50:40;;;;;;;29.52;8.23;;;;;;;16.93;70.12;101875.63;5113763;28;20487;-69
2021/08/14 06:53:06;;;;;;;22.10;7.88;;;;;;;17.07;68.40;101869.59;5113629;28;20434;-68
2021/08/14 06:55:33;;;;;;;33.70;8.45;;;;;;;17.10;69.38;101877.31;5113055;28;20403;-68
2021/08/14 06:58:00;;;;;;;27.05;7.70;;;;;;;16.99;70.05;101866.91;5112933;28;20050;-69
2021/08/14 07:00:27;;;;;;;26.55;6.95;;;;;;;17.14;70.19;101875.94;5078633;28;20518;-70
2021/08/14 07:02:53;;;;;;;32.50;7.63;;;;;;;17.22;69.08;101870.56;5112235;28;20043;-69
2021/08/14 07:05:22;;;;;;;27.70;7.95;;;;;;;17.30;68.62;101869.72;5113100;28;20039;-68
2021/08/14 07:07:49;;;;;;;25.60;8.30;;;;;;;17.40;68.11;101864.16;5110471;28;20050;-67
2021/08/14 07:10:16;;;;;;;21.58;6.85;;;;;;;17.48;68.34;101864.13;5095052;28;20048;-67
2021/08/14 07:12:44;;;;;;;35.65;7.63;;;;;;;17.43;69.84;101861.16;5114400;28;20484;-68
2021/08/14 07:15:12;;;;;;;19.10;7.55;;;;;;;17.59;68.03;101853.03;5113457;28;20038;-67
2021/08/14 07:17:41;;;;;;;30.67;7.03;;;;;;;17.53;69.23;101848.34;5113220;28;20400;-68
2021/08/14 07:20:08;;;;;;;33.13;6.82;;;;;;;17.62;68.01;101849.16;5112695;28;20050;-68
2021/08/14 07:22:35;;;;;;;23.73;6.82;;;;;;;17.64;69.49;101841.78;5112975;28;20051;-68
2021/08/14 07:25:02;;;;;;;25.25;6.63;;;;;;;17.82;66.00;101847.72;5110767;28;20507;-67
2021/08/14 07:27:29;;;;;;;29.67;6.90;;;;;;;17.94;65.84;101855.44;5111675;28;20131;-68
2021/08/14 07:29:55;;;;;;;19.70;6.72;;;;;;;17.80;66.79;101859.66;5111517;28;20048;-68
2021/08/14 07:32:23;;;;;;;25.05;6.93;;;;;;;17.90;66.55;101860.31;5111637;28;20036;-69
2021/08/14 07:34:49;;;;;;;20.33;6.53;;;;;;;17.91;66.27;101853.09;5094979;28;20499;-69
2021/08/14 07:37:16;;;;;;;23.50;6.80;;;;;;;17.94;66.38;101855.44;5110958;28;20142;-68
2021/08/14 07:39:43;;;;;;;26.42;6.70;;;;;;;17.93;65.00;101854.59;5111987;28;20048;-70
2021/08/14 07:42:09;;;;;;;29.45;6.43;;;;;;;18.00;65.44;101854.72;5112611;28;20127;-69
2021/08/14 07:44:36;;;;;;;25.02;6.43;;;;;;;18.13;63.74;101854.16;5094497;28;20043;-69
2021/08/14 07:47:13;;;;;;;25.48;6.78;;;;;;;18.31;63.78;101851.19;5112773;28;20039;-69
2021/08/14 07:49:39;;;;;;;21.63;5.57;;;;;;;18.38;62.37;101850.28;5100116;28;20047;-71
2021/08/14 07:52:08;;;;;;;22.05;5.63;;;;;;;18.45;62.75;101842.38;5092076;28;20090;-68
2021/08/14 07:54:35;;;;;;;20.92;6.35;;;;;;;18.44;63.11;101845.22;5091111;28;20405;-70
2021/08/14 07:57:02;;;;;;;24.42;6.03;;;;;;;18.46;62.33;101845.88;5094167;28;20040;-69
2021/08/14 07:59:28;;;;;;;23.33;5.43;;;;;;;18.53;60.06;101846.81;5101959;28;20173;-70
2021/08/14 08:01:55;;;;;;;14.63;4.72;;;;;;;18.63;59.79;101849.25;5116832;27;20062;-69
2021/08/14 08:04:22;;;;;;;22.35;5.13;;;;;;;18.84;57.96;101848.63;5098743;28;20071;-69
2021/08/14 08:06:49;;;;;;;18.60;5.18;;;;;;;18.96;58.09;101849.84;5113445;28;20372;-68
2021/08/14 08:09:15;;;;;;;26.67;5.40;;;;;;;18.81;60.64;101844.47;5115357;28;20060;-70
2021/08/14 08:11:42;;;;;;;20.55;5.28;;;;;;;18.90;58.99;101839.81;5115556;28;20051;-68
2021/08/14 08:14:09;;;;;;;25.55;5.55;;;;;;;18.96;58.19;101848.00;5116351;28;20130;-70
2021/08/14 08:16:35;;;;;;;22.83;5.03;;;;;;;19.08;57.36;101836.78;5116880;28;20555;-67
2021/08/14 08:19:02;;;;;;;18.67;5.03;;;;;;;19.28;55.68;101840.63;5116249;28;20040;-70
2021/08/14 08:21:29;;;;;;;18.63;4.65;;;;;;;19.34;56.33;101849.81;5116330;28;20051;-69
2021/08/14 08:23:56;;;;;;;17.10;4.70;;;;;;;19.41;54.67;101849.88;5116254;28;20150;-69
2021/08/14 08:26:23;;;;;;;20.17;4.72;;;;;;;19.52;55.25;101850.25;5116556;28;20391;-69
2021/08/14 08:28:49;;;;;;;23.33;4.93;;;;;;;19.61;55.11;101863.63;5128546;27;20510;-68
2021/08/14 08:31:16;;;;;;;18.05;4.15;;;;;;;19.67;54.59;101862.88;5136897;27;20411;-71
2021/08/14 08:33:43;;;;;;;21.13;5.03;;;;;;;19.72;54.07;101857.78;5135043;27;20047;-69
2021/08/14 08:36:10;;;;;;;21.60;4.82;;;;;;;19.70;55.29;101849.88;5136911;27;20039;-70
2021/08/14 08:38:36;;;;;;;22.33;4.60;;;;;;;19.67;55.75;101852.13;5136707;27;20411;-71
2021/08/14 08:41:04;;;;;;;19.98;4.68;;;;;;;20.00;52.40;101838.25;5136404;27;20054;-70
2021/08/14 08:43:32;;;;;;;15.32;4.68;;;;;;;19.93;53.52;101841.69;5136524;27;20122;-70
2021/08/14 08:45:59;;;;;;;18.30;4.30;;;;;;;20.15;50.05;101839.03;5135352;27;20042;-69
2021/08/14 08:48:25;;;;;;;14.63;4.13;;;;;;;20.16;50.55;101840.72;5131742;27;20046;-69
2021/08/14 08:50:55;;;;;;;15.35;4.15;;;;;;;20.24;50.26;101834.34;5104988;28;20079;-70
2021/08/14 08:53:22;;;;;;;18.80;4.40;;;;;;;20.26;50.91;101835.00;5095856;28;20070;-74
2021/08/14 08:55:49;;;;;;;17.83;4.20;;;;;;;20.29;51.90;101835.44;5095889;28;20838;-70
2021/08/14 08:58:16;;;;;;;15.80;4.40;;;;;;;20.58;50.05;101828.25;5104279;28;20047;-69
2021/08/14 09:00:43;;;;;;;18.83;4.15;;;;;;;20.70;49.00;101824.03;5115020;28;20522;-69
2021/08/14 09:03:13;;;;;;;16.67;4.03;;;;;;;20.60;47.82;101831.59;5096068;28;20075;-69
2021/08/14 09:05:56;;;;;;;21.80;4.50;;;;;;;20.75;49.32;101834.22;5095116;28;20097;-68
2021/08/14 09:08:23;;;;;;;20.02;4.55;;;;;;;20.85;46.50;101833.91;5102974;28;20042;-68
2021/08/14 09:11:07;;;;;;;23.65;4.63;;;;;;;20.94;46.42;101830.03;5093630;28;20036;-71
2021/08/14 09:13:34;;;;;;;15.05;3.90;;;;;;;20.99;47.33;101835.69;5095617;28;20052;-70
2021/08/14 09:16:18;;;;;;;19.50;4.55;;;;;;;21.05;47.62;101825.97;5096051;28;20042;-70
2021/08/14 09:18:54;;;;;;;16.42;4.10;;;;;;;21.20;48.69;101832.06;5107035;28;20036;-69
2021/08/14 09:24:08;;;;;;;13.35;4.10;;;;;;;21.46;43.96;101817.06;5130301;27;20189;-68
2021/08/14 09:26:50;;;;;;;21.13;5.53;;;;;;;21.54;45.78;101824.16;5092015;28;20071;-69
2021/08/14 09:29:17;;;;;;;15.07;4.78;;;;;;;21.67;43.09;101826.94;5091664;28;20526;-69
2021/08/14 09:31:47;;;;;;;20.40;6.18;;;;;;;21.69;44.67;101811.38;5108902;28;20036;-69
2021/08/14 09:34:18;;;;;;;18.33;4.22;;;;;;;21.61;44.54;101808.84;5103717;28;20052;-69
2021/08/14 09:36:59;;;;;;;18.83;5.03;;;;;;;21.80;43.01;101809.97;5091296;28;20507;-69
2021/08/14 09:39:27;;;;;;;16.52;4.32;;;;;;;21.85;42.95;101812.88;5090700;28;20048;-69
2021/08/14 09:42:03;;;;;;;17.33;5.20;;;;;;;22.07;43.44;101813.56;5108860;28;20047;-69
2021/08/14 09:44:29;;;;;;;17.77;5.35;;;;;;;22.07;42.49;101816.25;5106722;28;20036;-70
2021/08/14 09:46:56;;;;;;;17.95;4.90;;;;;;;22.22;43.28;101811.50;5081322;28;20067;-70
2021/08/14 09:49:23;;;;;;;16.13;3.67;;;;;;;22.21;44.28;101812.56;5091189;28;20119;-69
2021/08/14 09:51:50;;;;;;;15.32;4.00;;;;;;;22.09;40.69;101811.47;5091558;28;20093;-69
2021/08/14 09:54:18;;;;;;;19.13;4.15;;;;;;;22.34;41.34;101802.81;5107679;28;20040;-71
2021/08/14 09:56:44;;;;;;;16.70;4.20;;;;;;;22.28;40.42;101804.47;5109248;28;20031;-71
2021/08/14 09:59:12;;;;;;;12.40;3.78;;;;;;;22.53;40.94;101803.88;5109454;28;20040;-69
2021/08/14 10:01:40;;;;;;;21.33;4.00;;;;;;;22.50;39.26;101797.00;5109544;28;20051;-69
2021/08/14 10:04:08;;;;;;;16.05;3.45;;;;;;;22.62;39.64;101800.75;5064788;28;20611;-69
2021/08/14 10:06:35;;;;;;;19.63;6.45;;;;;;;22.62;39.77;101805.31;5107440;28;20044;-70
2021/08/14 10:09:02;;;;;;;15.85;4.53;;;;;;;22.80;39.08;101804.69;5103971;28;20576;-69
2021/08/14 10:11:29;;;;;;;26.17;9.63;;;;;;;22.78;40.13;101802.19;5057286;28;20122;-69
2021/08/14 10:13:56;;;;;;;14.50;3.92;;;;;;;22.72;39.39;101794.06;5107951;28;20035;-69
2021/08/14 10:16:23;;;;;;;19.10;6.70;;;;;;;23.16;39.40;101798.00;5090610;28;20051;-69
2021/08/14 10:18:50;;;;;;;19.98;3.83;;;;;;;23.49;37.66;101797.06;5090119;28;20450;-70
2021/08/14 10:21:17;;;;;;;15.90;3.95;;;;;;;23.55;37.96;101794.31;5073902;28;20562;-69
2021/08/14 10:23:45;;;;;;;19.92;4.28;;;;;;;23.69;38.23;101778.84;5103889;28;20121;-70
2021/08/14 10:26:17;;;;;;;13.60;3.47;;;;;;;23.87;37.98;101791.69;5106128;28;20051;-69
2021/08/14 10:36:49;;;;;;;13.55;3.67;;;;;;;24.19;38.69;101777.31;5128648;27;20382;-67
2021/08/14 10:39:25;;;;;;;13.63;3.75;;;;;;;24.22;36.59;101772.28;5130612;27;20445;-67
2021/08/14 10:41:54;;;;;;;13.60;3.92;;;;;;;24.08;36.12;101773.41;5123216;27;20035;-67
2021/08/14 10:44:47;;;;;;;15.27;4.35;;;;;;;24.37;36.76;101774.66;5130014;27;20107;-67
2021/08/14 10:50:33;;;;;;;17.25;3.95;;;;;;;24.56;38.44;101774.72;5130385;27;20382;-68
2021/08/14 10:53:19;;;;;;;14.43;4.03;;;;;;;24.37;36.89;101760.28;5112312;28;20113;-68
2021/08/14 10:55:49;;;;;;;14.57;3.92;;;;;;;24.24;37.29;101763.94;5117606;28;20047;-67
2021/08/14 11:01:08;;;;;;;17.75;4.25;;;;;;;24.65;37.95;101757.97;5110422;27;20874;-67
2021/08/14 11:03:36;;;;;;;13.02;3.85;;;;;;;24.74;35.32;101754.94;5108630;28;20105;-67
2021/08/14 11:06:25;;;;;;;15.45;4.07;;;;;;;24.68;34.85;101751.25;5109647;28;20047;-67
2021/08/14 11:11:59;;;;;;;17.63;4.15;;;;;;;24.56;35.27;101755.75;5089643;27;20427;-68
2021/08/14 11:14:41;;;;;;;20.38;4.95;;;;;;;24.67;35.23;101758.56;5089319;28;20044;-68
2021/08/14 11:17:10;;;;;;;15.40;4.00;;;;;;;24.68;35.93;101746.66;5088552;28;20093;-67
2021/08/14 11:19:53;;;;;;;14.73;4.43;;;;;;;24.83;34.67;101748.19;5088163;28;20040;-67
2021/08/14 11:22:42;;;;;;;15.23;3.67;;;;;;;24.71;35.77;101754.34;5089736;28;20040;-68
2021/08/14 11:28:10;;;;;;;14.80;4.47;;;;;;;25.18;35.08;101751.13;5110129;27;20354;-69
2021/08/14 11:30:42;;;;;;;15.20;4.00;;;;;;;24.98;35.87;101745.94;5110126;28;20048;-68
2021/08/14 11:33:09;;;;;;;;;;;;;;;25.20;35.31;101740.88;5108789;28;20036;-69
2021/08/14 11:35:38;;;;;;;12.50;4.15;;;;;;;25.33;33.79;101737.19;5109834;28;19924;-68
2021/08/14 11:38:08;;;;;;;14.88;3.80;;;;;;;25.33;34.31;101737.19;5109816;28;20068;-68
2021/08/14 11:40:38;;;;;;;11.38;3.90;;;;;;;25.46;34.42;101744.34;5108287;28;20050;-69
2021/08/14 11:43:09;;;;;;;23.00;4.68;;;;;;;25.62;34.79;101743.69;5108634;28;20400;-68